createdAt,value
2018-05-31T00:01:52.752Z,8.77
2018-05-31T00:04:21.785Z,8.70
2018-05-31T00:06:50.139Z,8.20
2018-05-31T00:09:18.466Z,7.70
2018-05-31T00:11:46.793Z,8.97
2018-05-31T00:14:15.129Z,8.53
2018-05-31T00:16:44.287Z,8.70
2018-05-31T00:19:12.825Z,8.87
2018-05-31T00:21:41.314Z,9.50
2018-05-31T00:24:09.729Z,8.43
2018-05-31T00:26:38.233Z,9.30
2018-05-31T00:29:06.535Z,9.20
2018-05-31T00:31:34.841Z,8.17
2018-05-31T00:34:03.197Z,8.37
2018-05-31T00:36:31.484Z,9.37
2018-05-31T00:39:00.873Z,9.00
2018-05-31T00:41:30.715Z,9.80
2018-05-31T00:43:59.021Z,9.37
2018-05-31T00:46:27.352Z,9.37
2018-05-31T00:48:56.437Z,9.47
2018-05-31T00:51:24.776Z,8.37
2018-05-31T00:53:53.878Z,8.20
2018-05-31T00:56:22.266Z,9.77
2018-05-31T00:58:50.548Z,8.70
2018-05-31T01:01:18.885Z,9.80
2018-05-31T01:03:47.990Z,8.87
2018-05-31T01:06:16.379Z,8.93
2018-05-31T01:08:44.729Z,9.00
2018-05-31T01:11:13.842Z,9.50
2018-05-31T01:13:42.169Z,8.37
2018-05-31T01:16:10.509Z,9.20
2018-05-31T01:18:39.021Z,9.63
2018-05-31T01:21:07.319Z,8.80
2018-05-31T01:23:35.604Z,7.10
2018-05-31T01:26:04.034Z,10.00
2018-05-31T01:28:32.378Z,9.87
2018-05-31T01:31:00.726Z,10.13
2018-05-31T01:33:29.083Z,12.13
2018-05-31T01:35:57.505Z,9.57
2018-05-31T01:38:31.769Z,10.90
2018-05-31T01:41:00.188Z,10.80
2018-05-31T01:43:28.476Z,9.77
2018-05-31T01:45:56.772Z,12.53
2018-05-31T01:48:25.126Z,11.43
2018-05-31T01:50:54.198Z,10.33
2018-05-31T01:53:22.520Z,11.73
2018-05-31T01:55:50.857Z,11.40
2018-05-31T01:58:19.926Z,13.90
2018-05-31T02:00:48.354Z,13.57
2018-05-31T02:03:18.189Z,11.93
2018-05-31T02:05:47.278Z,12.63
2018-05-31T02:08:15.626Z,11.50
2018-05-31T02:10:43.998Z,11.83
2018-05-31T02:13:12.926Z,12.50
2018-05-31T02:15:41.474Z,13.13
2018-05-31T02:18:09.927Z,12.23
2018-05-31T02:20:38.284Z,11.80
2018-05-31T02:23:06.652Z,12.07
2018-05-31T02:25:34.957Z,12.70
2018-05-31T02:28:03.356Z,11.80
2018-05-31T02:30:31.761Z,12.97
2018-05-31T02:33:00.820Z,11.37
2018-05-31T02:35:30.012Z,11.23
2018-05-31T02:37:58.426Z,12.90
2018-05-31T02:40:27.724Z,12.97
2018-05-31T02:42:56.142Z,12.47
2018-05-31T02:45:24.550Z,14.33
2018-05-31T02:47:53.157Z,13.10
2018-05-31T02:50:21.462Z,13.07
2018-05-31T02:52:49.773Z,14.97
2018-05-31T02:55:18.977Z,15.50
2018-05-31T02:57:47.281Z,15.03
2018-05-31T03:00:17.093Z,14.80
2018-05-31T03:02:45.453Z,13.40
2018-05-31T03:05:14.545Z,13.17
2018-05-31T03:07:43.016Z,13.80
2018-05-31T03:10:11.365Z,13.50
2018-05-31T03:12:39.844Z,13.27
2018-05-31T03:15:08.139Z,13.30
2018-05-31T03:17:36.441Z,14.00
2018-05-31T03:20:04.801Z,13.73
2018-05-31T03:22:33.165Z,13.30
2018-05-31T03:25:01.510Z,16.50
2018-05-31T03:27:29.887Z,14.57
2018-05-31T03:29:58.366Z,13.80
2018-05-31T03:32:29.858Z,14.00
2018-05-31T03:34:58.934Z,15.07
2018-05-31T03:37:29.225Z,15.17
2018-05-31T03:39:57.573Z,14.73
2018-05-31T03:42:25.878Z,16.30
2018-05-31T03:44:54.350Z,15.40
2018-05-31T03:47:23.422Z,17.83
2018-05-31T03:49:51.713Z,14.80
2018-05-31T03:52:20.061Z,14.90
2018-05-31T03:54:48.461Z,14.53
2018-05-31T03:57:17.081Z,16.60
2018-05-31T03:59:45.548Z,15.60
2018-05-31T04:02:13.972Z,14.80
2018-05-31T04:04:42.405Z,15.90
2018-05-31T04:07:11.525Z,17.27
2018-05-31T04:09:40.636Z,16.40
2018-05-31T04:12:09.734Z,16.87
2018-05-31T04:14:38.152Z,17.40
2018-05-31T04:17:07.204Z,16.50
2018-05-31T04:19:36.274Z,16.50
2018-05-31T04:22:04.580Z,17.10
2018-05-31T04:24:32.999Z,18.27
2018-05-31T04:27:01.350Z,17.60
2018-05-31T04:29:29.721Z,17.07
2018-05-31T04:31:58.090Z,16.93
2018-05-31T04:34:26.385Z,18.50
2018-05-31T04:36:54.745Z,16.57
2018-05-31T04:39:23.837Z,17.67
2018-05-31T04:41:52.132Z,17.87
2018-05-31T04:44:20.469Z,17.60
2018-05-31T04:46:49.524Z,19.43
2018-05-31T04:49:18.021Z,18.33
2018-05-31T04:51:46.415Z,19.83
2018-05-31T04:54:15.529Z,18.60
2018-05-31T04:56:43.878Z,19.50
2018-05-31T04:59:12.175Z,19.17
2018-05-31T05:01:40.591Z,17.00
2018-05-31T05:04:08.902Z,18.43
2018-05-31T05:06:37.249Z,18.17
2018-05-31T05:09:05.687Z,18.70
2018-05-31T05:11:34.061Z,18.47
2018-05-31T05:14:02.495Z,19.00
2018-05-31T05:16:30.945Z,19.93
2018-05-31T05:18:59.283Z,17.60
2018-05-31T05:21:28.473Z,19.00
2018-05-31T05:23:56.847Z,17.80
2018-05-31T05:26:25.167Z,20.27
2018-05-31T05:28:54.265Z,18.80
2018-05-31T05:31:22.664Z,17.73
2018-05-31T05:33:51.046Z,18.13
2018-05-31T05:36:19.509Z,20.10
2018-05-31T05:38:48.628Z,18.80
2018-05-31T05:41:17.117Z,19.57
2018-05-31T05:43:46.245Z,18.87
2018-05-31T05:46:15.446Z,19.53
2018-05-31T05:48:44.521Z,18.40
2018-05-31T05:51:12.977Z,19.60
2018-05-31T05:53:42.137Z,18.83
2018-05-31T05:56:10.481Z,18.80
2018-05-31T05:58:38.836Z,19.07
2018-05-31T06:01:07.398Z,17.90
2018-05-31T06:03:36.518Z,19.53
2018-05-31T06:06:04.926Z,17.47
2018-05-31T06:08:33.282Z,18.30
2018-05-31T06:11:01.619Z,18.20
2018-05-31T06:13:31.091Z,18.70
2018-05-31T06:16:00.533Z,17.80
2018-05-31T06:18:29.718Z,19.63
2018-05-31T06:20:58.803Z,17.50
2018-05-31T06:23:27.184Z,17.93
2018-05-31T06:25:55.493Z,17.43
2018-05-31T06:28:23.833Z,17.77
2018-05-31T06:30:53.705Z,19.07
2018-05-31T06:33:22.804Z,19.10
2018-05-31T06:35:51.192Z,19.10
2018-05-31T06:38:19.534Z,18.10
2018-05-31T06:40:48.598Z,17.20
2018-05-31T06:43:17.034Z,17.80
2018-05-31T06:45:45.341Z,18.03
2018-05-31T06:48:13.831Z,17.57
2018-05-31T06:50:42.130Z,17.10
2018-05-31T06:53:10.483Z,17.93
2018-05-31T06:55:38.781Z,18.70
2018-05-31T06:58:07.879Z,16.83
2018-05-31T07:00:36.189Z,16.43
2018-05-31T07:03:05.281Z,15.47
2018-05-31T07:05:33.621Z,17.47
2018-05-31T07:08:02.686Z,15.50
2018-05-31T07:10:31.020Z,17.80
2018-05-31T07:12:59.499Z,16.10
2018-05-31T07:15:27.954Z,17.40
2018-05-31T07:17:57.090Z,13.67
2018-05-31T07:20:25.447Z,14.57
2018-05-31T07:22:53.797Z,14.43
2018-05-31T07:25:22.146Z,14.33
2018-05-31T07:27:50.449Z,14.03
2018-05-31T07:30:19.057Z,14.40
2018-05-31T07:32:47.365Z,12.30
2018-05-31T07:35:15.682Z,14.43
2018-05-31T07:37:44.073Z,15.23
2018-05-31T07:40:12.370Z,12.40
2018-05-31T07:42:40.665Z,12.23
2018-05-31T07:45:09.007Z,12.40
2018-05-31T07:47:38.107Z,14.33
2018-05-31T07:50:06.490Z,12.53
2018-05-31T07:52:34.838Z,11.33
2018-05-31T07:55:03.888Z,12.17
2018-05-31T07:57:32.233Z,10.23
2018-05-31T08:00:00.634Z,11.53
2018-05-31T08:02:29.008Z,12.50
2018-05-31T08:04:57.472Z,10.13
2018-05-31T08:07:26.574Z,11.77
2018-05-31T08:09:54.957Z,12.43
2018-05-31T08:12:23.248Z,10.80
2018-05-31T08:14:51.734Z,11.07
2018-05-31T08:17:20.035Z,10.50
2018-05-31T08:19:48.330Z,9.77
2018-05-31T08:22:16.662Z,9.83
2018-05-31T08:24:44.957Z,9.17
2018-05-31T08:27:13.284Z,9.10
2018-05-31T08:29:41.621Z,8.40
2018-05-31T08:32:10.661Z,8.40
2018-05-31T08:34:39.002Z,6.93
2018-05-31T08:37:07.390Z,8.00
2018-05-31T08:39:35.720Z,8.53
2018-05-31T08:42:04.013Z,8.90
2018-05-31T08:44:32.345Z,6.50
2018-05-31T08:47:01.540Z,7.30
2018-05-31T08:49:29.901Z,6.90
2018-05-31T08:51:58.276Z,7.60
2018-05-31T08:54:27.612Z,5.87
2018-05-31T08:56:56.711Z,5.43
2018-05-31T08:59:25.773Z,4.73
2018-05-31T09:01:54.216Z,5.03
2018-05-31T09:04:22.505Z,7.13
2018-05-31T09:06:50.814Z,7.77
2018-05-31T09:09:19.163Z,6.30
2018-05-31T09:11:48.336Z,5.63
2018-05-31T09:14:16.657Z,5.77
2018-05-31T09:16:44.985Z,5.37
2018-05-31T09:19:14.060Z,5.30
2018-05-31T09:21:42.356Z,4.70
2018-05-31T09:24:10.774Z,6.50
2018-05-31T09:26:39.057Z,6.40
2018-05-31T09:29:07.368Z,7.10
2018-05-31T09:31:35.705Z,6.03
2018-05-31T09:34:04.763Z,5.30
2018-05-31T09:36:33.053Z,5.13
2018-05-31T09:39:01.610Z,4.70
2018-05-31T09:41:29.960Z,5.70
2018-05-31T09:43:58.280Z,4.90
2018-05-31T09:46:26.626Z,4.27
2018-05-31T09:48:55.004Z,4.57
2018-05-31T09:51:23.290Z,4.93
2018-05-31T09:53:51.618Z,5.60
2018-05-31T09:56:19.903Z,5.63
2018-05-31T09:58:48.226Z,5.50
2018-05-31T10:01:16.525Z,4.47
2018-05-31T10:03:44.841Z,4.87
2018-05-31T10:06:13.445Z,4.60
2018-05-31T10:08:41.828Z,4.70
2018-05-31T10:11:10.117Z,4.37
2018-05-31T10:13:38.437Z,4.50
2018-05-31T10:16:06.746Z,4.40
2018-05-31T10:18:35.045Z,4.33
2018-05-31T10:21:03.365Z,4.50
2018-05-31T10:23:31.771Z,4.13
2018-05-31T10:26:00.202Z,4.27
2018-05-31T10:28:28.644Z,4.80
2018-05-31T10:30:57.601Z,4.83
2018-05-31T10:33:26.802Z,4.40
2018-05-31T10:35:55.097Z,4.50
2018-05-31T10:38:23.418Z,4.23
2018-05-31T10:40:51.744Z,6.20
2018-05-31T10:43:20.792Z,4.40
2018-05-31T10:45:49.081Z,4.50
2018-05-31T10:48:17.438Z,4.13
2018-05-31T10:50:46.569Z,4.40
2018-05-31T10:53:14.926Z,4.30
2018-05-31T10:55:43.274Z,5.10
2018-05-31T10:58:11.661Z,4.60
2018-05-31T11:00:39.945Z,4.77
2018-05-31T11:03:08.272Z,5.47
2018-05-31T11:05:36.668Z,4.07
2018-05-31T11:08:04.953Z,5.67
2018-05-31T11:10:33.482Z,4.40
2018-05-31T11:13:01.873Z,4.90
2018-05-31T11:15:30.377Z,5.07
2018-05-31T11:17:58.989Z,4.00
2018-05-31T11:20:27.637Z,5.30
2018-05-31T11:22:56.007Z,5.23
2018-05-31T11:25:24.297Z,4.70
2018-05-31T11:27:52.629Z,4.50
2018-05-31T11:30:20.916Z,4.47
2018-05-31T11:32:49.242Z,4.40
2018-05-31T11:35:17.529Z,5.50
2018-05-31T11:37:45.898Z,5.13
2018-05-31T11:40:14.193Z,5.20
2018-05-31T11:42:42.481Z,4.87
2018-05-31T11:45:10.808Z,5.77
2018-05-31T11:47:39.130Z,5.50
2018-05-31T11:50:07.534Z,5.80
2018-05-31T11:52:35.821Z,5.27
2018-05-31T11:55:04.157Z,4.47
2018-05-31T11:57:32.507Z,5.03
2018-05-31T12:00:00.895Z,4.93
2018-05-31T12:02:29.629Z,5.40
2018-05-31T12:04:57.969Z,5.00
2018-05-31T12:07:26.257Z,5.30
2018-05-31T12:09:54.593Z,5.50
2018-05-31T12:12:23.649Z,5.80
2018-05-31T12:14:51.988Z,5.27
2018-05-31T12:17:20.391Z,5.53
2018-05-31T12:19:48.793Z,6.30
2018-05-31T12:22:17.157Z,5.47
2018-05-31T12:24:45.452Z,5.30
2018-05-31T12:27:13.792Z,5.27
2018-05-31T12:29:42.205Z,6.33
2018-05-31T12:32:10.515Z,5.60
2018-05-31T12:34:38.859Z,6.17
2018-05-31T12:37:07.953Z,6.10
2018-05-31T12:39:36.333Z,6.00
2018-05-31T12:42:04.656Z,5.23
2018-05-31T12:44:33.232Z,5.63
2018-05-31T12:47:01.531Z,5.70
2018-05-31T12:49:29.845Z,5.80
2018-05-31T12:51:58.221Z,5.17
2018-05-31T12:54:26.510Z,5.03
2018-05-31T12:56:55.684Z,5.50
2018-05-31T12:59:24.069Z,4.93
2018-05-31T13:01:52.389Z,4.57
2018-05-31T13:04:21.705Z,4.57
2018-05-31T13:06:50.025Z,6.30
2018-05-31T13:09:18.704Z,6.10
2018-05-31T13:11:47.318Z,5.83
2018-05-31T13:14:15.630Z,5.10
2018-05-31T13:16:43.926Z,7.70
2018-05-31T13:19:12.592Z,6.10
2018-05-31T13:21:41.636Z,6.13
2018-05-31T13:24:10.424Z,5.50
2018-05-31T13:26:39.498Z,4.90
2018-05-31T13:29:08.101Z,5.70
2018-05-31T13:31:36.411Z,5.27
2018-05-31T13:34:04.698Z,5.63
2018-05-31T13:36:33.201Z,6.13
2018-05-31T13:39:01.634Z,5.27
2018-05-31T13:41:29.977Z,5.10
2018-05-31T13:43:58.424Z,5.17
2018-05-31T13:46:27.697Z,5.47
2018-05-31T13:48:56.045Z,5.33
2018-05-31T13:51:24.441Z,5.30
2018-05-31T13:53:52.770Z,5.20
2018-05-31T13:56:21.061Z,6.10
2018-05-31T13:58:49.380Z,4.63
2018-05-31T14:01:17.701Z,4.70
2018-05-31T14:03:46.794Z,5.33
2018-05-31T14:06:15.078Z,5.23
2018-05-31T14:08:43.493Z,5.23
2018-05-31T14:11:11.774Z,5.50
2018-05-31T14:13:40.297Z,6.37
2018-05-31T14:16:08.596Z,4.97
2018-05-31T14:18:36.881Z,5.40
2018-05-31T14:21:05.400Z,5.50
2018-05-31T14:23:33.800Z,5.10
2018-05-31T14:26:02.414Z,5.23
2018-05-31T14:28:31.018Z,5.47
2018-05-31T14:30:59.532Z,5.23
2018-05-31T14:33:28.158Z,4.57
2018-05-31T14:35:56.482Z,5.00
2018-05-31T14:38:24.861Z,4.80
2018-05-31T14:40:53.154Z,6.00
2018-05-31T14:43:21.551Z,5.40
2018-05-31T14:45:49.936Z,5.53
2018-05-31T14:48:18.368Z,5.87
2018-05-31T14:50:46.874Z,5.03
2018-05-31T14:53:15.381Z,5.30
2018-05-31T14:55:43.691Z,6.07
2018-05-31T14:58:11.985Z,5.07
2018-05-31T15:00:40.315Z,4.70
2018-05-31T15:03:08.652Z,4.90
2018-05-31T15:05:37.024Z,4.90
2018-05-31T15:08:05.291Z,5.20
2018-05-31T15:10:33.697Z,4.20
2018-05-31T15:13:02.138Z,5.17
2018-05-31T15:15:31.357Z,4.50
2018-05-31T15:18:00.029Z,3.90
2018-05-31T15:20:28.616Z,5.30
2018-05-31T15:22:57.035Z,4.70
2018-05-31T15:25:25.377Z,3.97
2018-05-31T15:27:53.661Z,5.80
2018-05-31T15:30:22.018Z,4.50
2018-05-31T15:32:50.765Z,4.30
2018-05-31T15:35:19.359Z,4.20
2018-05-31T15:37:47.726Z,4.67
2018-05-31T15:40:16.911Z,4.20
2018-05-31T15:42:45.990Z,4.27
2018-05-31T15:45:14.268Z,4.23
2018-05-31T15:47:43.357Z,4.67
2018-05-31T15:50:12.785Z,4.20
2018-05-31T15:52:41.088Z,4.80
2018-05-31T15:55:09.380Z,5.17
2018-05-31T15:57:37.705Z,5.13
2018-05-31T16:00:05.997Z,4.70
2018-05-31T16:02:34.582Z,4.90
2018-05-31T16:05:03.388Z,4.87
2018-05-31T16:07:32.005Z,4.67
2018-05-31T16:10:00.654Z,5.03
2018-05-31T16:12:29.425Z,5.23
2018-05-31T16:14:58.335Z,4.80
2018-05-31T16:17:26.999Z,4.20
2018-05-31T16:19:56.147Z,5.33
2018-05-31T16:22:25.516Z,4.83
2018-05-31T16:24:55.453Z,5.27
2018-05-31T16:27:23.779Z,4.33
2018-05-31T16:29:52.068Z,5.40
2018-05-31T16:32:20.453Z,4.67
2018-05-31T16:34:48.947Z,4.90
2018-05-31T16:37:17.261Z,4.60
2018-05-31T16:39:45.607Z,3.77
2018-05-31T16:42:13.955Z,3.97
2018-05-31T16:44:42.365Z,3.90
2018-05-31T16:47:10.653Z,4.47
2018-05-31T16:49:39.181Z,4.60
2018-05-31T16:52:07.477Z,4.77
2018-05-31T16:54:35.989Z,4.87
2018-05-31T16:57:04.364Z,4.93
2018-05-31T16:59:32.698Z,4.60
2018-05-31T17:02:01.061Z,5.30
2018-05-31T17:04:29.498Z,5.00
2018-05-31T17:06:57.841Z,5.00
2018-05-31T17:09:27.248Z,4.47
2018-05-31T17:11:55.529Z,5.30
2018-05-31T17:14:23.850Z,5.00
2018-05-31T17:16:53.669Z,5.07
2018-05-31T17:19:22.257Z,4.93
2018-05-31T17:21:50.582Z,5.13
2018-05-31T17:24:19.245Z,5.90
2018-05-31T17:26:48.585Z,5.60
2018-05-31T17:29:16.913Z,5.70
2018-05-31T17:31:45.296Z,7.73
2018-05-31T17:34:13.608Z,4.83
2018-05-31T17:36:42.003Z,4.40
2018-05-31T17:39:10.322Z,5.20
2018-05-31T17:41:38.609Z,5.17
2018-05-31T17:44:06.898Z,5.50
2018-05-31T17:46:35.222Z,5.30
2018-05-31T17:49:03.501Z,6.13
2018-05-31T17:51:31.793Z,5.40
2018-05-31T17:54:00.880Z,5.40
2018-05-31T17:56:29.571Z,4.90
2018-05-31T17:58:57.916Z,5.37
2018-05-31T18:01:26.962Z,5.10
2018-05-31T18:03:55.350Z,5.27
2018-05-31T18:06:23.641Z,4.73
2018-05-31T18:08:52.202Z,5.30
2018-05-31T18:11:20.524Z,6.37
2018-05-31T18:13:48.902Z,5.10
2018-05-31T18:16:17.514Z,5.60
2018-05-31T18:18:45.788Z,6.00
2018-05-31T18:21:14.121Z,5.80
2018-05-31T18:23:42.449Z,5.07
2018-05-31T18:26:11.628Z,5.73
2018-05-31T18:28:39.914Z,6.43
2018-05-31T18:31:08.246Z,5.57
2018-05-31T18:33:36.614Z,6.23
2018-05-31T18:36:04.893Z,5.67
2018-05-31T18:38:33.371Z,6.10
2018-05-31T18:41:01.737Z,5.93
2018-05-31T18:43:30.049Z,5.90
2018-05-31T18:45:58.445Z,6.00
2018-05-31T18:48:26.750Z,6.60
2018-05-31T18:50:55.070Z,6.07
2018-05-31T18:53:23.353Z,7.80
2018-05-31T18:55:51.749Z,6.17
2018-05-31T18:58:20.058Z,5.93
2018-05-31T19:00:48.376Z,5.50
2018-05-31T19:03:16.665Z,5.97
2018-05-31T19:05:44.994Z,5.83
2018-05-31T19:08:14.176Z,6.40
2018-05-31T19:10:42.505Z,6.30
2018-05-31T19:13:16.533Z,5.50
2018-05-31T19:15:44.925Z,6.10
2018-05-31T19:18:19.069Z,5.90
2018-05-31T19:20:47.355Z,7.00
2018-05-31T19:23:15.650Z,6.13
2018-05-31T19:25:43.979Z,5.63
2018-05-31T19:28:12.301Z,6.07
2018-05-31T19:30:46.998Z,5.93
2018-05-31T19:33:15.442Z,6.57
2018-05-31T19:35:50.853Z,6.20
2018-05-31T19:38:19.974Z,6.87
2018-05-31T19:40:49.045Z,7.33
2018-05-31T19:43:23.201Z,7.00
2018-05-31T19:45:51.573Z,6.53
2018-05-31T19:48:19.856Z,6.50
2018-05-31T19:50:48.182Z,6.40
2018-05-31T19:53:22.226Z,7.00
2018-05-31T19:55:50.549Z,6.90
2018-05-31T19:58:24.661Z,6.23
2018-05-31T20:00:58.947Z,7.00
2018-05-31T20:03:33.193Z,7.83
2018-05-31T20:06:02.468Z,7.27
2018-05-31T20:08:30.774Z,7.57
2018-05-31T20:10:59.060Z,6.77
2018-05-31T20:13:27.527Z,6.90
2018-05-31T20:15:56.585Z,6.80
2018-05-31T20:18:24.870Z,6.50
2018-05-31T20:20:53.219Z,7.13
2018-05-31T20:23:21.613Z,7.70
2018-05-31T20:25:49.936Z,6.87
2018-05-31T20:28:18.312Z,6.73
2018-05-31T20:30:46.713Z,6.53
2018-05-31T20:33:15.738Z,5.43
2018-05-31T20:35:44.069Z,8.10
2018-05-31T20:38:13.563Z,7.03
2018-05-31T20:40:41.850Z,6.83
2018-05-31T20:43:10.373Z,6.23
2018-05-31T20:45:38.689Z,6.67
2018-05-31T20:48:07.260Z,6.80
2018-05-31T20:50:35.629Z,7.10
2018-05-31T20:53:04.096Z,5.90
2018-05-31T20:55:32.432Z,7.50
2018-05-31T20:58:00.810Z,6.50
2018-05-31T21:00:29.179Z,6.90
2018-05-31T21:02:57.464Z,6.00
2018-05-31T21:05:26.565Z,6.90
2018-05-31T21:07:54.937Z,6.50
2018-05-31T21:10:23.308Z,6.70
2018-05-31T21:12:51.645Z,6.50
2018-05-31T21:15:19.928Z,6.50
2018-05-31T21:17:48.400Z,6.40
2018-05-31T21:20:17.682Z,7.93
2018-05-31T21:22:46.023Z,6.70
2018-05-31T21:25:15.090Z,7.00
2018-05-31T21:27:43.633Z,7.70
2018-05-31T21:30:12.753Z,9.37
2018-05-31T21:32:41.151Z,7.77
2018-05-31T21:35:10.249Z,8.80
2018-05-31T21:37:38.545Z,7.50
2018-05-31T21:40:06.829Z,7.73
2018-05-31T21:42:35.204Z,7.10
2018-05-31T21:45:03.646Z,7.30
2018-05-31T21:47:31.973Z,7.53
2018-05-31T21:50:00.312Z,7.70
2018-05-31T21:52:29.442Z,7.67
2018-05-31T21:54:57.793Z,7.23
2018-05-31T21:57:26.089Z,7.43
2018-05-31T21:59:54.429Z,7.30
2018-05-31T22:02:23.569Z,9.00
2018-05-31T22:04:52.025Z,8.30
2018-05-31T22:07:20.621Z,9.07
2018-05-31T22:09:49.046Z,9.60
2018-05-31T22:12:17.401Z,9.47
2018-05-31T22:14:45.743Z,8.90
2018-05-31T22:17:14.093Z,9.73
2018-05-31T22:19:42.417Z,9.30
2018-05-31T22:22:10.721Z,10.37
2018-05-31T22:24:39.081Z,11.20
2018-05-31T22:27:08.132Z,9.60
2018-05-31T22:29:36.469Z,9.87
2018-05-31T22:32:04.877Z,9.40
2018-05-31T22:34:33.174Z,10.40
2018-05-31T22:37:01.679Z,10.90
2018-05-31T22:39:30.053Z,9.43
2018-05-31T22:41:58.490Z,10.10
2018-05-31T22:44:26.859Z,10.37
2018-05-31T22:46:55.925Z,10.67
2018-05-31T22:49:24.822Z,10.80
2018-05-31T22:51:53.243Z,9.80
2018-05-31T22:54:21.524Z,10.70
2018-05-31T22:56:49.816Z,11.30
2018-05-31T22:59:18.214Z,10.90
2018-05-31T23:01:46.561Z,10.90
2018-05-31T23:04:14.856Z,10.10
2018-05-31T23:06:43.278Z,10.10
2018-05-31T23:09:12.564Z,11.07
2018-05-31T23:11:40.981Z,11.00
2018-05-31T23:14:09.286Z,12.13
2018-05-31T23:16:37.694Z,12.90
2018-05-31T23:19:06.032Z,11.70
2018-05-31T23:21:35.097Z,12.90
2018-05-31T23:24:03.442Z,12.10
2018-05-31T23:26:32.509Z,10.60
2018-05-31T23:29:01.028Z,11.57
2018-05-31T23:31:29.482Z,10.70
2018-05-31T23:33:57.854Z,12.07
2018-05-31T23:36:26.185Z,13.13
2018-05-31T23:38:55.273Z,10.83
2018-05-31T23:41:23.614Z,12.60
2018-05-31T23:43:52.673Z,12.23
2018-05-31T23:46:21.306Z,13.07
2018-05-31T23:48:49.700Z,13.07
2018-05-31T23:51:17.997Z,12.03
2018-05-31T23:53:46.409Z,13.40
2018-05-31T23:56:14.849Z,13.43
2018-05-31T23:58:43.926Z,14.23
